Time;durP1;ratioP1;P1;durP2;ratioP2;P2;SDS_P1;SDS_P2;PMS_P1;PMS_P2;Temp;Humidity;BMP_temperature;BMP_pressure;BME280_temperature;BME280_humidity;BME280_pressure;Samples;Min_cycle;Max_cycle;Signal;HPM_P1;HPM_P2
2021/05/24 00:00:22;;;;;;;5.68;3.08;;;;;;;;;;5092318;28;20479;-71
2021/05/24 00:02:49;;;;;;;7.82;3.20;;;;;;;;;;5092808;28;20388;-72
2021/05/24 00:05:17;;;;;;;7.65;3.35;;;;;;;;;;5086339;28;20036;-71
2021/05/24 00:07:44;;;;;;;7.63;3.80;;;;;;;;;;5075542;28;20087;-72
2021/05/24 00:10:11;;;;;;;6.75;3.50;;;;;;;;;;5075520;28;20025;-72
2021/05/24 00:12:38;;;;;;;5.47;3.05;;;;;;;;;;5075496;28;20024;-72
2021/05/24 00:15:05;;;;;;;11.80;3.70;;;;;;;;;;5076109;28;20107;-72
2021/05/24 00:17:31;;;;;;;7.95;3.30;;;;;;;;;;5075337;28;20021;-71
2021/05/24 00:19:58;;;;;;;10.38;3.97;;;;;;;;;;5057429;28;20033;-72
2021/05/24 00:22:24;;;;;;;6.65;3.10;;;;;;;;;;5075190;28;20044;-71
2021/05/24 00:24:51;;;;;;;7.03;3.70;;;;;;;;;;5075483;28;20415;-72
2021/05/24 00:27:17;;;;;;;9.27;4.07;;;;;;;;;;5077377;28;20149;-72
2021/05/24 00:29:43;;;;;;;6.00;3.13;;;;;;;;;;5094820;28;20020;-71
2021/05/24 00:32:10;;;;;;;7.93;3.85;;;;;;;;;;5076921;28;20541;-72
2021/05/24 00:34:36;;;;;;;4.93;3.38;;;;;;;;;;5095260;28;20051;-71
2021/05/24 00:37:03;;;;;;;11.95;3.30;;;;;;;;;;5076318;28;20028;-72
2021/05/24 00:39:29;;;;;;;8.23;3.08;;;;;;;;;;5074639;28;20025;-72
2021/05/24 00:41:56;;;;;;;10.88;4.00;;;;;;;;;;5074810;28;20211;-72
2021/05/24 00:44:24;;;;;;;7.10;3.15;;;;;;;;;;5057106;28;20067;-71
2021/05/24 00:46:51;;;;;;;5.45;3.03;;;;;;;;;;5086254;28;20056;-72
2021/05/24 00:49:17;;;;;;;4.38;3.00;;;;;;;;;;5074800;28;20028;-72
2021/05/24 00:51:43;;;;;;;5.28;2.88;;;;;;;;;;5074788;28;20107;-72
2021/05/24 00:54:27;;;;;;;9.07;3.00;;;;;;;;;;5074765;28;20086;-71
2021/05/24 00:56:54;;;;;;;9.73;2.63;;;;;;;;;;5093835;28;20028;-72
2021/05/24 00:59:20;;;;;;;6.40;3.88;;;;;;;;;;5094640;28;20381;-71
2021/05/24 01:01:47;;;;;;;8.43;2.67;;;;;;;;;;5094810;28;20405;-72
2021/05/24 01:04:16;;;;;;;9.90;2.55;;;;;;;;;;5075664;28;20529;-72
2021/05/24 01:06:42;;;;;;;8.50;3.03;;;;;;;;;;5074557;28;20063;-71
2021/05/24 01:09:08;;;;;;;5.78;2.50;;;;;;;;;;5074390;28;20373;-71
2021/05/24 01:11:35;;;;;;;4.78;2.65;;;;;;;;;;5084175;28;20366;-71
2021/05/24 01:14:01;;;;;;;6.45;2.90;;;;;;;;;;5094055;28;20491;-71
2021/05/24 01:16:27;;;;;;;5.68;2.70;;;;;;;;;;5075437;28;20427;-71
2021/05/24 01:18:54;;;;;;;5.85;3.10;;;;;;;;;;5094420;28;20020;-71
2021/05/24 01:21:22;;;;;;;5.82;2.28;;;;;;;;;;5068742;28;20032;-71
2021/05/24 01:23:48;;;;;;;11.85;2.83;;;;;;;;;;5075207;28;20078;-71
2021/05/24 01:26:15;;;;;;;5.15;2.95;;;;;;;;;;5074104;28;20074;-71
2021/05/24 01:28:41;;;;;;;6.18;2.72;;;;;;;;;;5073932;28;20028;-72
2021/05/24 01:31:08;;;;;;;8.90;3.53;;;;;;;;;;5073923;28;20096;-71
2021/05/24 01:33:36;;;;;;;8.82;3.55;;;;;;;;;;5080263;28;20024;-71
2021/05/24 01:36:06;;;;;;;7.63;3.08;;;;;;;;;;5094174;28;20069;-71
2021/05/24 01:38:34;;;;;;;5.18;2.50;;;;;;;;;;5093545;28;20020;-72
2021/05/24 01:41:00;;;;;;;7.75;2.53;;;;;;;;;;5094205;28;20023;-72
2021/05/24 01:43:28;;;;;;;5.55;2.65;;;;;;;;;;5093980;28;20080;-72
2021/05/24 01:45:55;;;;;;;7.90;3.20;;;;;;;;;;5094065;28;20381;-72
2021/05/24 01:48:22;;;;;;;7.38;2.35;;;;;;;;;;5090006;28;20031;-72
2021/05/24 01:50:48;;;;;;;7.82;2.63;;;;;;;;;;5093235;28;20539;-72
2021/05/24 01:53:15;;;;;;;6.88;3.00;;;;;;;;;;5093834;28;20027;-71
2021/05/24 01:55:41;;;;;;;6.78;3.08;;;;;;;;;;5091957;28;20034;-72
2021/05/24 01:58:09;;;;;;;6.28;3.10;;;;;;;;;;5093032;28;20016;-71
2021/05/24 02:00:35;;;;;;;6.53;3.03;;;;;;;;;;5095653;28;20012;-72
2021/05/24 02:03:01;;;;;;;9.18;3.67;;;;;;;;;;5112432;28;20380;-72
2021/05/24 02:05:28;;;;;;;8.55;3.00;;;;;;;;;;5113951;28;20032;-71
2021/05/24 02:07:55;;;;;;;9.23;3.47;;;;;;;;;;5100255;28;20424;-72
2021/05/24 02:10:25;;;;;;;7.93;2.30;;;;;;;;;;5075356;28;20102;-72
2021/05/24 02:12:52;;;;;;;5.32;2.47;;;;;;;;;;5093066;28;20106;-71
2021/05/24 02:15:20;;;;;;;6.82;2.35;;;;;;;;;;5074697;28;20028;-72
2021/05/24 02:17:47;;;;;;;8.68;2.75;;;;;;;;;;5091528;28;20020;-72
2021/05/24 02:20:18;;;;;;;4.00;2.30;;;;;;;;;;5080934;28;20024;-72
2021/05/24 02:22:44;;;;;;;5.57;2.58;;;;;;;;;;5072886;28;20041;-71
2021/05/24 02:25:11;;;;;;;4.13;2.65;;;;;;;;;;5073022;28;20024;-72
2021/05/24 02:27:37;;;;;;;8.10;2.63;;;;;;;;;;5072555;28;20047;-71
2021/05/24 02:30:05;;;;;;;5.40;2.55;;;;;;;;;;5054983;28;20060;-71
2021/05/24 02:32:31;;;;;;;5.40;2.67;;;;;;;;;;5084433;28;20339;-71
2021/05/24 02:34:58;;;;;;;10.18;2.95;;;;;;;;;;5077492;28;20031;-71
2021/05/24 02:37:24;;;;;;;8.43;2.53;;;;;;;;;;5083650;28;20025;-71
2021/05/24 02:39:51;;;;;;;7.95;2.10;;;;;;;;;;5072792;28;20527;-71
2021/05/24 02:42:18;;;;;;;4.38;2.15;;;;;;;;;;5072728;28;20048;-71
2021/05/24 02:44:44;;;;;;;6.22;2.65;;;;;;;;;;5073800;28;20028;-72
2021/05/24 02:47:10;;;;;;;7.20;2.15;;;;;;;;;;5073404;28;20049;-72
2021/05/24 02:49:37;;;;;;;5.85;2.28;;;;;;;;;;5094412;28;20069;-71
2021/05/24 02:52:04;;;;;;;7.05;2.80;;;;;;;;;;5112672;28;20058;-71
2021/05/24 02:54:30;;;;;;;5.13;2.17;;;;;;;;;;5112868;28;20023;-71
2021/05/24 02:56:57;;;;;;;6.55;2.47;;;;;;;;;;5091587;28;20039;-72
2021/05/24 02:59:24;;;;;;;4.40;2.72;;;;;;;;;;5112570;28;20034;-72
2021/05/24 03:01:50;;;;;;;7.93;2.08;;;;;;;;;;5112868;28;20061;-71
2021/05/24 03:04:24;;;;;;;3.65;2.25;;;;;;;;;;5113167;28;20019;-72
2021/05/24 03:06:51;;;;;;;4.63;2.03;;;;;;;;;;5113196;28;20027;-71
2021/05/24 03:09:17;;;;;;;4.43;2.03;;;;;;;;;;5089656;28;20028;-72
2021/05/24 03:11:43;;;;;;;6.95;2.30;;;;;;;;;;5092821;28;20490;-72
2021/05/24 03:14:10;;;;;;;3.88;2.00;;;;;;;;;;5074563;28;20370;-72
2021/05/24 03:16:37;;;;;;;34.10;3.70;;;;;;;;;;5092408;28;20415;-72
2021/05/24 03:19:04;;;;;;;6.78;2.20;;;;;;;;;;5083927;28;20145;-71
2021/05/24 03:21:30;;;;;;;5.15;2.15;;;;;;;;;;5072005;28;20064;-72
2021/05/24 03:23:57;;;;;;;4.97;1.92;;;;;;;;;;5072343;28;20033;-72
2021/05/24 03:26:23;;;;;;;6.65;2.30;;;;;;;;;;5072357;28;20024;-72
2021/05/24 03:28:49;;;;;;;7.07;2.22;;;;;;;;;;5078714;28;20481;-71
2021/05/24 03:31:16;;;;;;;5.95;2.10;;;;;;;;;;5092417;28;20039;-71
2021/05/24 03:33:42;;;;;;;4.03;2.20;;;;;;;;;;5092497;28;20021;-71
2021/05/24 03:36:09;;;;;;;6.88;1.65;;;;;;;;;;5085029;28;20025;-71
2021/05/24 03:38:35;;;;;;;3.35;1.95;;;;;;;;;;5073666;28;20482;-71
2021/05/24 03:41:02;;;;;;;6.05;1.95;;;;;;;;;;5074896;28;20450;-71
2021/05/24 03:43:28;;;;;;;3.60;1.90;;;;;;;;;;5076087;28;20070;-71
2021/05/24 03:45:54;;;;;;;9.13;2.13;;;;;;;;;;5080641;28;20020;-72
2021/05/24 03:48:21;;;;;;;3.85;1.75;;;;;;;;;;5095907;28;20032;-71
2021/05/24 03:50:47;;;;;;;5.55;2.10;;;;;;;;;;5096134;28;20077;-72
2021/05/24 03:53:14;;;;;;;7.20;2.13;;;;;;;;;;5077926;28;20111;-72
2021/05/24 03:55:40;;;;;;;5.40;1.67;;;;;;;;;;5092958;28;20024;-71
2021/05/24 03:58:07;;;;;;;9.65;2.00;;;;;;;;;;5075623;28;20504;-71
2021/05/24 04:00:34;;;;;;;4.72;2.30;;;;;;;;;;5075632;28;20016;-71
2021/05/24 04:03:02;;;;;;;4.82;1.67;;;;;;;;;;5104652;28;20015;-71
2021/05/24 04:05:34;;;;;;;4.45;1.98;;;;;;;;;;5115815;28;20053;-71
2021/05/24 04:08:01;;;;;;;5.47;2.13;;;;;;;;;;5103110;28;20020;-71
2021/05/24 04:10:30;;;;;;;6.40;2.40;;;;;;;;;;5115722;28;20024;-71
2021/05/24 04:12:56;;;;;;;12.93;2.88;;;;;;;;;;5115730;28;20034;-71
2021/05/24 04:15:23;;;;;;;3.55;1.90;;;;;;;;;;5115581;28;20032;-72
2021/05/24 04:17:50;;;;;;;4.57;1.70;;;;;;;;;;5109525;28;20022;-71
2021/05/24 04:20:17;;;;;;;8.73;2.30;;;;;;;;;;5114784;28;20482;-71
2021/05/24 04:22:43;;;;;;;9.57;2.25;;;;;;;;;;5106683;28;20152;-72
2021/05/24 04:25:11;;;;;;;7.03;1.98;;;;;;;;;;5114174;28;20493;-72
2021/05/24 04:27:37;;;;;;;4.78;1.85;;;;;;;;;;5108295;28;20035;-71
2021/05/24 04:30:07;;;;;;;7.32;2.00;;;;;;;;;;5111663;28;20058;-72
2021/05/24 04:32:33;;;;;;;4.63;2.03;;;;;;;;;;5105422;28;20464;-72
2021/05/24 04:35:00;;;;;;;5.80;1.83;;;;;;;;;;5115294;28;20024;-72
2021/05/24 04:37:26;;;;;;;4.65;2.03;;;;;;;;;;5115045;28;20019;-72
2021/05/24 04:39:52;;;;;;;5.03;1.85;;;;;;;;;;5105757;28;20020;-71
2021/05/24 04:42:21;;;;;;;3.17;1.77;;;;;;;;;;5109804;28;20654;-72
2021/05/24 04:44:47;;;;;;;5.43;2.08;;;;;;;;;;5115202;28;20015;-72
2021/05/24 04:47:13;;;;;;;4.75;1.85;;;;;;;;;;5112789;28;20024;-72
2021/05/24 04:49:40;;;;;;;4.80;2.05;;;;;;;;;;5114779;28;20051;-72
2021/05/24 04:52:06;;;;;;;3.60;1.75;;;;;;;;;;5114973;28;20019;-72
2021/05/24 04:54:33;;;;;;;5.18;2.08;;;;;;;;;;5115037;28;20096;-72
2021/05/24 04:56:59;;;;;;;3.88;1.92;;;;;;;;;;5113419;28;20072;-72
2021/05/24 04:59:25;;;;;;;4.47;2.08;;;;;;;;;;5114703;28;20020;-72
2021/05/24 05:01:52;;;;;;;4.07;2.10;;;;;;;;;;5114424;28;20030;-72
2021/05/24 05:04:19;;;;;;;4.32;2.08;;;;;;;;;;5114723;28;20095;-71
2021/05/24 05:06:45;;;;;;;4.90;2.10;;;;;;;;;;5113460;28;20038;-72
2021/05/24 05:09:11;;;;;;;5.28;1.98;;;;;;;;;;5112658;28;20520;-71
2021/05/24 05:11:38;;;;;;;4.70;1.65;;;;;;;;;;5114665;28;20034;-71
2021/05/24 05:14:05;;;;;;;3.20;1.60;;;;;;;;;;5114569;28;20020;-71
2021/05/24 05:16:31;;;;;;;5.97;1.80;;;;;;;;;;5114486;28;20023;-71
2021/05/24 05:18:58;;;;;;;5.20;2.17;;;;;;;;;;5108213;28;20019;-71
2021/05/24 05:21:24;;;;;;;3.97;1.80;;;;;;;;;;5109895;28;20022;-70
2021/05/24 05:23:50;;;;;;;3.72;1.70;;;;;;;;;;5113416;28;20024;-71
2021/05/24 05:26:16;;;;;;;5.95;1.95;;;;;;;;;;5114226;28;20015;-71
2021/05/24 05:28:43;;;;;;;6.35;1.98;;;;;;;;;;5108256;28;20045;-71
2021/05/24 05:31:09;;;;;;;4.20;2.00;;;;;;;;;;5110486;28;20111;-72
2021/05/24 05:33:35;;;;;;;5.47;1.52;;;;;;;;;;5114218;28;20031;-71
2021/05/24 05:36:02;;;;;;;5.50;1.67;;;;;;;;;;5113985;28;20099;-71
2021/05/24 05:38:30;;;;;;;7.53;1.50;;;;;;;;;;5110517;28;20024;-72
2021/05/24 05:40:56;;;;;;;3.38;1.48;;;;;;;;;;5112843;28;20016;-72
2021/05/24 05:43:22;;;;;;;3.13;1.40;;;;;;;;;;5111142;28;20018;-71
2021/05/24 05:45:49;;;;;;;3.67;1.40;;;;;;;;;;5114044;28;20038;-72
2021/05/24 05:48:15;;;;;;;8.82;2.30;;;;;;;;;;5113460;28;20028;-71
2021/05/24 05:50:42;;;;;;;4.03;1.42;;;;;;;;;;5113913;28;20098;-71
2021/05/24 05:53:08;;;;;;;2.88;1.38;;;;;;;;;;5093904;28;20424;-71
2021/05/24 05:55:34;;;;;;;5.03;1.55;;;;;;;;;;5109664;28;20524;-71
2021/05/24 05:58:01;;;;;;;4.93;2.35;;;;;;;;;;5105789;28;20027;-71
2021/05/24 06:00:27;;;;;;;4.60;1.40;;;;;;;;;;5112849;28;20028;-72
2021/05/24 06:02:54;;;;;;;3.45;1.17;;;;;;;;;;5092878;28;20072;-71
2021/05/24 06:05:20;;;;;;;2.70;1.33;;;;;;;;;;5112782;28;20488;-70
2021/05/24 06:07:47;;;;;;;4.13;1.17;;;;;;;;;;5113466;28;20106;-71
2021/05/24 06:10:14;;;;;;;3.03;1.40;;;;;;;;;;5113510;28;20030;-70
2021/05/24 06:12:40;;;;;;;4.15;1.20;;;;;;;;;;5111853;28;20110;-71
2021/05/24 06:15:07;;;;;;;10.50;1.50;;;;;;;;;;5113330;28;20072;-70
2021/05/24 06:17:34;;;;;;;2.72;1.30;;;;;;;;;;5095066;28;20374;-70
2021/05/24 06:20:00;;;;;;;2.60;1.20;;;;;;;;;;5095012;28;20090;-72
2021/05/24 06:22:27;;;;;;;3.95;1.20;;;;;;;;;;5111951;28;20511;-72
2021/05/24 06:24:53;;;;;;;4.32;1.40;;;;;;;;;;5113314;28;20358;-71
2021/05/24 06:27:20;;;;;;;2.50;1.00;;;;;;;;;;5113085;28;20023;-71
2021/05/24 06:29:46;;;;;;;4.60;1.33;;;;;;;;;;5113151;28;20091;-71
2021/05/24 06:32:12;;;;;;;4.07;1.40;;;;;;;;;;5105166;28;20020;-71
2021/05/24 06:34:39;;;;;;;4.50;1.67;;;;;;;;;;5094872;28;20023;-71
2021/05/24 06:37:05;;;;;;;2.33;1.30;;;;;;;;;;5089552;28;20047;-70
2021/05/24 06:39:32;;;;;;;3.30;1.05;;;;;;;;;;5112529;28;20027;-71
2021/05/24 06:41:58;;;;;;;3.35;1.30;;;;;;;;;;5089619;28;20027;-71
2021/05/24 06:44:25;;;;;;;4.38;1.88;;;;;;;;;;5093053;28;20536;-72
2021/05/24 06:46:51;;;;;;;2.38;1.08;;;;;;;;;;5091078;28;20047;-72
2021/05/24 06:49:17;;;;;;;3.05;1.17;;;;;;;;;;5079334;28;20117;-71
2021/05/24 06:51:44;;;;;;;1.45;0.77;;;;;;;;;;5093400;28;20023;-71
2021/05/24 06:54:10;;;;;;;2.25;1.20;;;;;;;;;;5112830;28;20069;-71
2021/05/24 06:56:37;;;;;;;3.97;1.08;;;;;;;;;;5112703;28;20020;-71
2021/05/24 06:59:04;;;;;;;3.58;1.05;;;;;;;;;;5109724;28;20019;-71
2021/05/24 07:01:30;;;;;;;3.22;1.00;;;;;;;;;;5110669;28;20071;-71
2021/05/24 07:03:56;;;;;;;3.17;0.95;;;;;;;;;;5104976;28;20016;-72
2021/05/24 07:06:22;;;;;;;4.03;1.33;;;;;;;;;;5070833;28;20035;-71
2021/05/24 07:08:49;;;;;;;3.15;0.90;;;;;;;;;;5079037;28;20101;-72
2021/05/24 07:11:15;;;;;;;5.07;1.00;;;;;;;;;;5089015;28;20025;-71
2021/05/24 07:13:42;;;;;;;3.13;0.90;;;;;;;;;;5073018;28;20043;-72
2021/05/24 07:16:08;;;;;;;2.53;1.00;;;;;;;;;;5075065;28;20047;-71
2021/05/24 07:18:35;;;;;;;5.35;1.15;;;;;;;;;;5075643;28;20045;-71
2021/05/24 07:21:01;;;;;;;3.60;1.30;;;;;;;;;;5092936;28;20500;-72
2021/05/24 07:23:28;;;;;;;6.57;1.35;;;;;;;;;;5095108;28;20551;-72
2021/05/24 07:25:54;;;;;;;2.85;0.90;;;;;;;;;;5095251;28;20460;-72
2021/05/24 07:28:20;;;;;;;2.15;0.80;;;;;;;;;;5095013;28;20047;-72
2021/05/24 07:30:47;;;;;;;2.78;0.80;;;;;;;;;;5076873;28;20032;-72
2021/05/24 07:33:13;;;;;;;2.33;0.70;;;;;;;;;;5073487;28;20020;-72
2021/05/24 07:35:40;;;;;;;1.20;0.80;;;;;;;;;;5073669;28;20035;-72
2021/05/24 07:38:08;;;;;;;4.28;1.08;;;;;;;;;;5074596;28;20028;-72
2021/05/24 07:40:34;;;;;;;3.85;1.30;;;;;;;;;;5082540;28;20020;-72
2021/05/24 07:43:01;;;;;;;1.48;0.60;;;;;;;;;;5094946;28;20031;-72
2021/05/24 07:45:27;;;;;;;4.18;0.98;;;;;;;;;;5076674;28;20039;-71
2021/05/24 07:47:53;;;;;;;2.33;0.80;;;;;;;;;;5086126;28;20103;-71
2021/05/24 07:50:20;;;;;;;5.35;1.10;;;;;;;;;;5082242;28;20028;-71
2021/05/24 07:52:46;;;;;;;3.50;0.90;;;;;;;;;;5084987;28;20021;-71
2021/05/24 07:55:13;;;;;;;1.48;0.70;;;;;;;;;;5083656;28;20053;-71
2021/05/24 07:57:39;;;;;;;3.03;0.90;;;;;;;;;;5082845;28;20374;-71
2021/05/24 08:00:07;;;;;;;3.42;0.60;;;;;;;;;;5083305;28;20427;-71
2021/05/24 08:02:33;;;;;;;3.35;0.80;;;;;;;;;;5083736;28;20099;-71
2021/05/24 08:04:59;;;;;;;2.78;0.80;;;;;;;;;;5084977;28;20028;-72
2021/05/24 08:07:26;;;;;;;3.53;0.65;;;;;;;;;;5088388;28;20055;-71
2021/05/24 08:09:52;;;;;;;2.85;0.70;;;;;;;;;;5071232;28;20024;-70
2021/05/24 08:12:19;;;;;;;3.92;0.60;;;;;;;;;;5090698;28;20035;-71
2021/05/24 08:14:45;;;;;;;1.02;0.40;;;;;;;;;;5092077;28;20054;-71
2021/05/24 08:17:12;;;;;;;2.17;1.20;;;;;;;;;;5093242;28;20077;-71
2021/05/24 08:19:38;;;;;;;1.92;0.80;;;;;;;;;;5092411;28;20024;-71
2021/05/24 08:22:04;;;;;;;1.77;0.50;;;;;;;;;;5093768;28;20033;-72
2021/05/24 08:24:30;;;;;;;3.92;0.60;;;;;;;;;;5101902;28;20034;-71
2021/05/24 08:26:57;;;;;;;1.08;0.43;;;;;;;;;;5114161;28;20028;-72
2021/05/24 08:29:23;;;;;;;5.18;0.73;;;;;;;;;;5100498;28;20038;-71
2021/05/24 08:31:50;;;;;;;3.88;0.70;;;;;;;;;;5093677;28;20420;-71
2021/05/24 08:34:16;;;;;;;2.72;0.80;;;;;;;;;;5093599;28;20032;-72
2021/05/24 08:36:43;;;;;;;2.47;0.55;;;;;;;;;;5091972;28;20024;-71
2021/05/24 08:39:10;;;;;;;1.88;0.50;;;;;;;;;;5093801;28;20012;-72
2021/05/24 08:41:36;;;;;;;1.92;0.68;;;;;;;;;;5093729;28;20349;-71
2021/05/24 08:44:03;;;;;;;2.67;0.55;;;;;;;;;;5093817;28;20024;-70
2021/05/24 08:46:29;;;;;;;4.20;0.70;;;;;;;;;;5080096;28;20052;-71
2021/05/24 08:48:55;;;;;;;2.13;0.60;;;;;;;;;;5072984;28;20078;-71
2021/05/24 08:51:22;;;;;;;2.28;0.60;;;;;;;;;;5090530;28;20481;-70
2021/05/24 08:53:48;;;;;;;3.20;0.60;;;;;;;;;;5094938;28;20031;-71
2021/05/24 08:56:15;;;;;;;2.50;0.60;;;;;;;;;;5082529;28;20131;-71
2021/05/24 08:58:41;;;;;;;1.45;0.75;;;;;;;;;;5056379;28;20107;-72
2021/05/24 09:01:08;;;;;;;3.33;0.60;;;;;;;;;;5074479;28;20031;-71
2021/05/24 09:03:35;;;;;;;1.90;0.52;;;;;;;;;;5074419;28;20021;-71
2021/05/24 09:06:07;;;;;;;3.13;0.70;;;;;;;;;;5084467;28;20028;-71
2021/05/24 09:08:43;;;;;;;3.30;0.70;;;;;;;;;;5094452;28;20393;-71
2021/05/24 09:14:14;;;;;;;4.28;0.85;;;;;;;;;;5087084;28;20063;-72
2021/05/24 09:16:40;;;;;;;1.42;0.80;;;;;;;;;;5075143;28;20393;-71
2021/05/24 09:19:21;;;;;;;3.78;1.80;;;;;;;;;;5089204;28;20016;-72
2021/05/24 09:22:01;;;;;;;2.15;0.93;;;;;;;;;;5093096;28;20129;-72
2021/05/24 09:24:28;;;;;;;;;;;;;;;;;;5093064;28;20043;-73
2021/05/24 09:26:54;;;;;;;2.45;0.60;;;;;;;;;;5093183;28;19911;-73
2021/05/24 09:29:24;;;;;;;3.60;0.95;;;;;;;;;;5074434;28;20539;-73
2021/05/24 09:31:50;;;;;;;;;;;;;;;;;;5093415;28;20023;-74
2021/05/24 09:34:21;;;;;;;1.98;0.45;;;;;;;;;;5074281;28;19904;-73
2021/05/24 09:36:58;;;;;;;1.27;0.40;;;;;;;;;;5092106;28;20027;-73
2021/05/24 09:39:29;;;;;;;1.92;0.55;;;;;;;;;;5092726;28;20028;-73
2021/05/24 09:42:00;;;;;;;2.42;0.50;;;;;;;;;;5104103;28;20027;-73
2021/05/24 09:44:27;;;;;;;0.68;0.38;;;;;;;;;;5083218;28;20024;-74
2021/05/24 09:46:53;;;;;;;3.75;0.90;;;;;;;;;;5092338;28;20119;-73
2021/05/24 09:49:27;;;;;;;3.47;0.80;;;;;;;;;;5094081;28;20016;-73
2021/05/24 09:51:53;;;;;;;1.63;0.40;;;;;;;;;;5094952;28;20077;-74
2021/05/24 09:54:22;;;;;;;2.65;0.40;;;;;;;;;;5095600;28;20031;-74
2021/05/24 09:56:48;;;;;;;1.77;0.70;;;;;;;;;;5074501;28;20417;-74
2021/05/24 09:59:20;;;;;;;1.63;0.70;;;;;;;;;;5091608;28;20054;-74
2021/05/24 10:01:58;;;;;;;3.00;0.80;;;;;;;;;;5092814;28;20016;-73
2021/05/24 10:04:25;;;;;;;0.95;0.40;;;;;;;;;;5093356;28;20386;-75
2021/05/24 10:06:52;;;;;;;2.33;0.57;;;;;;;;;;5091826;28;20030;-74
2021/05/24 10:09:19;;;;;;;1.38;0.50;;;;;;;;;;5111065;28;20496;-74
2021/05/24 10:11:46;;;;;;;1.88;0.50;;;;;;;;;;5091131;28;20384;-74
2021/05/24 10:14:13;;;;;;;1.45;0.50;;;;;;;;;;5092600;28;20024;-71
2021/05/24 10:16:44;;;;;;;1.67;0.40;;;;;;;;;;5106044;28;20035;-71
2021/05/24 10:19:14;;;;;;;1.83;0.90;;;;;;;;;;5094321;28;20024;-70
2021/05/24 10:21:39;;;;;;;;;;;;;;;;;;5092736;28;20036;-72
2021/05/24 10:24:06;;;;;;;3.72;0.70;;;;;;;;;;5073985;28;19904;-73
2021/05/24 10:26:33;;;;;;;2.92;0.95;;;;;;;;;;5091800;28;20028;-72
2021/05/24 10:29:01;;;;;;;2.88;0.90;;;;;;;;;;5091250;28;20111;-72
2021/05/24 10:31:29;;;;;;;1.95;0.63;;;;;;;;;;5073003;28;20027;-73
2021/05/24 10:33:55;;;;;;;2.08;0.88;;;;;;;;;;5057124;28;20093;-73
2021/05/24 10:36:32;;;;;;;2.10;0.32;;;;;;;;;;5091585;28;20031;-74
2021/05/24 10:39:06;;;;;;;3.25;1.27;;;;;;;;;;5089862;28;20178;-74
2021/05/24 10:41:46;;;;;;;3.13;0.60;;;;;;;;;;5090881;28;20028;-74
2021/05/24 10:44:14;;;;;;;1.70;0.50;;;;;;;;;;5089331;28;20099;-74
2021/05/24 10:46:40;;;;;;;5.03;0.50;;;;;;;;;;5091436;28;20055;-71
2021/05/24 10:49:27;;;;;;;1.10;0.40;;;;;;;;;;5073905;28;20028;-71
2021/05/24 10:51:53;;;;;;;1.05;0.50;;;;;;;;;;5091937;28;20035;-71
2021/05/24 10:54:22;;;;;;;3.28;0.60;;;;;;;;;;5090134;28;20039;-73
2021/05/24 10:56:48;;;;;;;2.08;0.60;;;;;;;;;;5090052;28;20060;-73
2021/05/24 10:59:33;;;;;;;2.65;0.63;;;;;;;;;;5106804;28;20055;-73
2021/05/24 11:02:00;;;;;;;1.77;0.50;;;;;;;;;;5110989;28;20027;-73
2021/05/24 11:04:44;;;;;;;1.67;0.43;;;;;;;;;;5110862;28;20012;-74
2021/05/24 11:07:32;;;;;;;3.08;0.60;;;;;;;;;;5110416;28;20015;-72
2021/05/24 11:10:13;;;;;;;1.13;0.50;;;;;;;;;;5102007;28;20038;-72
2021/05/24 11:12:39;;;;;;;2.03;0.60;;;;;;;;;;5103731;28;20144;-72
2021/05/24 11:15:11;;;;;;;1.42;0.35;;;;;;;;;;5110675;28;20020;-72
2021/05/24 11:17:56;;;;;;;1.77;0.55;;;;;;;;;;5105295;28;20503;-73
2021/05/24 11:20:36;;;;;;;2.97;0.50;;;;;;;;;;5106955;28;20016;-73
2021/05/24 11:25:52;;;;;;;1.45;0.40;;;;;;;;;;5107840;28;20064;-73
2021/05/24 11:28:37;;;;;;;3.72;0.50;;;;;;;;;;5090369;28;20031;-72
2021/05/24 11:31:11;;;;;;;3.67;0.60;;;;;;;;;;5107554;28;20393;-71
2021/05/24 11:33:37;;;;;;;2.85;0.30;;;;;;;;;;5109024;28;20028;-72
2021/05/24 11:36:05;;;;;;;1.80;0.40;;;;;;;;;;5074701;28;20496;-72
2021/05/24 11:38:32;;;;;;;1.23;0.40;;;;;;;;;;5109605;28;20024;-71
2021/05/24 11:41:08;;;;;;;1.35;0.50;;;;;;;;;;5078112;28;20082;-71
2021/05/24 11:43:35;;;;;;;2.80;0.40;;;;;;;;;;5087381;28;20474;-72
2021/05/24 11:46:04;;;;;;;3.20;0.50;;;;;;;;;;5070202;28;20020;-72
2021/05/24 11:48:36;;;;;;;2.80;0.43;;;;;;;;;;5088292;28;20478;-72
2021/05/24 11:51:04;;;;;;;3.35;0.38;;;;;;;;;;5089214;28;20028;-74
2021/05/24 11:53:30;;;;;;;3.38;0.50;;;;;;;;;;5088735;28;20035;-72
2021/05/24 11:56:09;;;;;;;1.17;0.32;;;;;;;;;;5072251;28;20111;-73
2021/05/24 11:58:56;;;;;;;3.33;0.30;;;;;;;;;;5088120;28;20039;-73
2021/05/24 12:01:22;;;;;;;0.47;0.30;;;;;;;;;;5093449;28;20111;-73
2021/05/24 12:03:49;;;;;;;0.65;0.30;;;;;;;;;;5094145;28;20024;-74
2021/05/24 12:06:15;;;;;;;1.45;0.40;;;;;;;;;;5091952;28;20028;-73
2021/05/24 12:08:42;;;;;;;1.65;0.43;;;;;;;;;;5093964;28;20115;-73
2021/05/24 12:11:08;;;;;;;1.83;0.40;;;;;;;;;;5073530;28;20028;-74
2021/05/24 12:13:58;;;;;;;1.50;0.30;;;;;;;;;;5094484;28;20024;-74
2021/05/24 12:16:24;;;;;;;3.00;0.40;;;;;;;;;;5076842;28;20119;-73
2021/05/24 12:18:53;;;;;;;3.75;0.52;;;;;;;;;;5091210;28;20024;-74
2021/05/24 12:21:37;;;;;;;2.38;0.40;;;;;;;;;;5093423;28;20024;-74
2021/05/24 12:24:04;;;;;;;2.30;0.70;;;;;;;;;;5051265;28;20068;-74
2021/05/24 12:26:31;;;;;;;0.60;0.32;;;;;;;;;;5056150;28;20032;-74
2021/05/24 12:28:58;;;;;;;3.03;0.80;;;;;;;;;;5067380;28;20033;-74
2021/05/24 12:31:25;;;;;;;1.92;0.50;;;;;;;;;;5050880;28;20025;-74
2021/05/24 12:33:52;;;;;;;1.10;0.30;;;;;;;;;;5054997;28;20478;-74
2021/05/24 12:36:20;;;;;;;0.93;0.30;;;;;;;;;;5054505;28;20052;-74
2021/05/24 12:38:58;;;;;;;1.17;0.40;;;;;;;;;;5057356;28;20379;-74
2021/05/24 12:44:29;;;;;;;2.58;0.38;;;;;;;;;;5051981;28;20031;-77
2021/05/24 12:46:57;;;;;;;0.57;0.28;;;;;;;;;;5062148;28;20707;-75
2021/05/24 12:49:38;;;;;;;2.50;0.40;;;;;;;;;;5053363;28;20020;-74
2021/05/24 12:52:05;;;;;;;3.33;0.68;;;;;;;;;;5067756;28;20115;-74
2021/05/24 12:54:46;;;;;;;1.10;0.40;;;;;;;;;;5064198;28;20402;-74
2021/05/24 12:57:14;;;;;;;3.80;0.88;;;;;;;;;;5069240;28;20389;-73
2021/05/24 12:59:48;;;;;;;1.27;0.40;;;;;;;;;;5067279;28;20017;-70
2021/05/24 13:02:17;;;;;;;1.27;0.50;;;;;;;;;;5065747;28;20016;-72
2021/05/24 13:04:43;;;;;;;0.95;0.35;;;;;;;;;;5063879;28;20458;-73
2021/05/24 13:07:19;;;;;;;2.30;0.57;;;;;;;;;;5048678;28;20088;-72
2021/05/24 13:10:01;;;;;;;2.15;0.20;;;;;;;;;;5048786;28;20029;-72
2021/05/24 13:12:31;;;;;;;1.67;0.60;;;;;;;;;;5046478;28;20025;-73
2021/05/24 13:14:58;;;;;;;;;;;;;;;;;;5048879;28;20029;-73
2021/05/24 13:17:48;;;;;;;2.80;0.60;;;;;;;;;;5049461;28;19913;-72
2021/05/24 13:20:40;;;;;;;2.22;0.75;;;;;;;;;;5051884;28;20013;-73
2021/05/24 13:29:01;;;;;;;1.13;0.40;;;;;;;;;;5091394;28;20073;-72
2021/05/24 13:31:28;;;;;;;5.68;0.52;;;;;;;;;;5092518;28;20024;-72
2021/05/24 13:33:55;;;;;;;0.75;0.30;;;;;;;;;;5092426;28;20046;-72
2021/05/24 13:36:26;;;;;;;1.75;0.57;;;;;;;;;;5074238;28;20024;-72
2021/05/24 13:39:15;;;;;;;0.82;0.30;;;;;;;;;;5092323;28;20027;-72
2021/05/24 13:41:42;;;;;;;;;;;;;;;;;;5090843;28;20108;-72
2021/05/24 13:44:09;;;;;;;0.50;0.30;;;;;;;;;;5092299;28;19912;-72
2021/05/24 13:46:36;;;;;;;2.67;0.30;;;;;;;;;;5089428;28;20020;-72
2021/05/24 13:49:02;;;;;;;2.72;0.40;;;;;;;;;;5092059;28;20115;-73
2021/05/24 13:51:29;;;;;;;1.65;0.50;;;;;;;;;;5091929;28;20012;-72
2021/05/24 13:53:56;;;;;;;1.90;0.60;;;;;;;;;;5089412;28;20377;-72
2021/05/24 13:56:22;;;;;;;0.88;0.30;;;;;;;;;;5092278;28;20481;-72
2021/05/24 13:58:49;;;;;;;0.55;0.30;;;;;;;;;;5092269;28;20048;-72
2021/05/24 14:01:15;;;;;;;0.55;0.30;;;;;;;;;;5090077;28;20440;-72
2021/05/24 14:03:42;;;;;;;0.90;0.40;;;;;;;;;;5073689;28;20032;-72
2021/05/24 14:06:08;;;;;;;3.13;0.60;;;;;;;;;;5090449;28;20068;-72
2021/05/24 14:08:35;;;;;;;1.88;0.30;;;;;;;;;;5090392;28;20101;-72
2021/05/24 14:11:02;;;;;;;1.65;0.50;;;;;;;;;;5100233;28;20116;-71
2021/05/24 14:13:28;;;;;;;0.55;0.25;;;;;;;;;;5103526;28;20122;-72
2021/05/24 14:15:55;;;;;;;0.90;0.30;;;;;;;;;;5111599;28;20081;-71
2021/05/24 14:18:21;;;;;;;1.27;0.30;;;;;;;;;;5102139;28;20421;-72
2021/05/24 14:20:48;;;;;;;1.27;0.35;;;;;;;;;;5103679;28;20090;-72
2021/05/24 14:23:14;;;;;;;1.20;0.40;;;;;;;;;;5081269;28;20414;-77
2021/05/24 14:25:41;;;;;;;1.58;0.40;;;;;;;;;;5086691;28;20024;-72
2021/05/24 14:28:07;;;;;;;2.20;0.40;;;;;;;;;;5075401;28;20025;-72
2021/05/24 14:30:34;;;;;;;2.70;0.40;;;;;;;;;;5100762;28;20031;-72
2021/05/24 14:33:03;;;;;;;2.00;0.38;;;;;;;;;;5111069;28;20394;-72
2021/05/24 14:35:34;;;;;;;1.45;0.30;;;;;;;;;;5112942;28;20016;-71
2021/05/24 14:38:01;;;;;;;1.23;0.38;;;;;;;;;;5107274;28;20212;-71
2021/05/24 14:40:27;;;;;;;0.40;0.20;;;;;;;;;;5112356;28;20034;-72
2021/05/24 14:42:53;;;;;;;3.13;0.57;;;;;;;;;;5109584;28;20019;-71
2021/05/24 14:45:20;;;;;;;2.88;0.45;;;;;;;;;;5106856;28;20038;-72
2021/05/24 14:47:46;;;;;;;2.53;0.50;;;;;;;;;;5099130;28;20428;-72
2021/05/24 14:50:20;;;;;;;2.20;0.32;;;;;;;;;;5109692;28;20538;-72
2021/05/24 14:52:47;;;;;;;0.77;0.40;;;;;;;;;;5086906;28;20106;-72
2021/05/24 14:55:13;;;;;;;1.15;0.40;;;;;;;;;;5106961;28;20330;-72
2021/05/24 14:57:41;;;;;;;1.27;0.50;;;;;;;;;;5108315;28;20020;-73
2021/05/24 15:00:08;;;;;;;1.00;0.70;;;;;;;;;;5112043;28;20011;-72
2021/05/24 15:02:34;;;;;;;0.90;0.30;;;;;;;;;;5089568;28;20053;-74